Marston, North Carolina
Current Conditions -  °F | °C
As of 6:56 AM on Saturday 20 Dec 2014 (Local Time) from KHFF Reporting Station
Light Rain Light Rain  
Wind Chill: 35°   Ceiling: 6000
Heat Index: 39°   Visibility: 10mi
Dew Point: 37°   Wind: 5mph
Humidity: 91%   Direction: 30°NNE
Pressure: 30.24"   Gusts: NA
Location:  34.99°N, 79.58°W
Report Text: KHFF 201156Z AUTO 03004KT 10SM -RA OVC060 04/03 A3024 RMK AO2 SLP245 T00380025 10043 20022 53008
Loading
Personal Weather Stations






























Interactive Weather Map New forecast layout! Learn more

10-Day Weather Forecast

Advertisements
Track Severe Weather on mobile